Greymouth, New Zealand
Current Conditions -  °F | °C
As of 8:00 AM on Friday 30 Jan 2015 (Local Time) from NZCH Reporting Station
Broken Clouds Broken Clouds  
Wind Chill: 64°   Ceiling: 2200
Heat Index: 64°   Visibility: 6mi
Dew Point: 61°   Wind: 3mph
Humidity: 88%   Direction: 340°NNW
Pressure: 30"   Gusts: NA
Location:  42.46°S, 171.21°E
Report Text: NZCH 292000Z AUTO 34003KT 9999 BKN022/// 18/16 Q1016 TEMPO 6000DZ BKN012
Loading
Personal Weather Stations






























Interactive Weather Map New forecast layout! Learn more

10-Day Weather Forecast

Advertisements
Track Severe Weather on mobile